sensor_id;sensor_type;location;lat;lon;timestamp;P1;durP1;ratioP1;P2;durP2;ratioP2
65045;SDS011;54657;52.022;5.534;2022-09-03T00:00:39;2.05;;;1.40;;
65045;SDS011;54657;52.022;5.534;2022-09-03T00:05:46;1.80;;;1.40;;
65045;SDS011;54657;52.022;5.534;2022-09-03T00:08:24;2.58;;;1.38;;
65045;SDS011;54657;52.022;5.534;2022-09-03T00:11:02;2.85;;;1.30;;
65045;SDS011;54657;52.022;5.534;2022-09-03T00:13:32;2.22;;;1.30;;
65045;SDS011;54657;52.022;5.534;2022-09-03T00:16:04;2.25;;;1.20;;
65045;SDS011;54657;52.022;5.534;2022-09-03T00:18:34;2.08;;;1.25;;
65045;SDS011;54657;52.022;5.534;2022-09-03T00:21:13;3.83;;;1.43;;
65045;SDS011;54657;52.022;5.534;2022-09-03T00:23:41;2.70;;;1.40;;
65045;SDS011;54657;52.022;5.534;2022-09-03T00:34:13;3.92;;;1.30;;
65045;SDS011;54657;52.022;5.534;2022-09-03T00:36:44;2.08;;;1.33;;
65045;SDS011;54657;52.022;5.534;2022-09-03T00:39:20;4.75;;;1.50;;
65045;SDS011;54657;52.022;5.534;2022-09-03T00:53:16;2.95;;;1.45;;
65045;SDS011;54657;52.022;5.534;2022-09-03T01:01:19;3.70;;;1.58;;
65045;SDS011;54657;52.022;5.534;2022-09-03T01:18:26;1.88;;;1.60;;
65045;SDS011;54657;52.022;5.534;2022-09-03T01:29:12;1.63;;;1.52;;
65045;SDS011;54657;52.022;5.534;2022-09-03T01:43:54;2.10;;;1.70;;
65045;SDS011;54657;52.022;5.534;2022-09-03T01:46:09;1.48;;;1.27;;
65045;SDS011;54657;52.022;5.534;2022-09-03T01:51:24;5.78;;;1.63;;
65045;SDS011;54657;52.022;5.534;2022-09-03T02:02:21;2.80;;;1.45;;
65045;SDS011;54657;52.022;5.534;2022-09-03T02:05:22;4.65;;;1.70;;
65045;SDS011;54657;52.022;5.534;2022-09-03T02:08:01;3.42;;;1.55;;
65045;SDS011;54657;52.022;5.534;2022-09-03T02:10:46;1.60;;;1.48;;
65045;SDS011;54657;52.022;5.534;2022-09-03T02:16:10;2.08;;;1.33;;
65045;SDS011;54657;52.022;5.534;2022-09-03T02:18:40;2.28;;;1.42;;
65045;SDS011;54657;52.022;5.534;2022-09-03T02:21:11;2.60;;;1.60;;
65045;SDS011;54657;52.022;5.534;2022-09-03T02:23:40;4.63;;;1.48;;
65045;SDS011;54657;52.022;5.534;2022-09-03T02:26:07;1.55;;;1.30;;
65045;SDS011;54657;52.022;5.534;2022-09-03T02:28:35;4.53;;;1.80;;
65045;SDS011;54657;52.022;5.534;2022-09-03T02:31:01;5.97;;;1.65;;
65045;SDS011;54657;52.022;5.534;2022-09-03T02:33:27;2.55;;;1.45;;
65045;SDS011;54657;52.022;5.534;2022-09-03T02:35:55;2.58;;;1.50;;
65045;SDS011;54657;52.022;5.534;2022-09-03T02:38:22;5.30;;;1.50;;
65045;SDS011;54657;52.022;5.534;2022-09-03T02:40:49;1.95;;;1.20;;
65045;SDS011;54657;52.022;5.534;2022-09-03T02:43:26;2.33;;;1.35;;
65045;SDS011;54657;52.022;5.534;2022-09-03T02:45:59;3.53;;;1.40;;
65045;SDS011;54657;52.022;5.534;2022-09-03T02:48:27;3.95;;;1.35;;
65045;SDS011;54657;52.022;5.534;2022-09-03T02:50:53;1.65;;;1.35;;
65045;SDS011;54657;52.022;5.534;2022-09-03T02:53:18;2.58;;;1.55;;
65045;SDS011;54657;52.022;5.534;2022-09-03T02:55:44;2.00;;;1.38;;
65045;SDS011;54657;52.022;5.534;2022-09-03T02:58:10;2.20;;;1.45;;
65045;SDS011;54657;52.022;5.534;2022-09-03T03:00:35;3.25;;;1.50;;
65045;SDS011;54657;52.022;5.534;2022-09-03T03:03:02;3.45;;;1.58;;
65045;SDS011;54657;52.022;5.534;2022-09-03T03:05:48;4.88;;;1.55;;
65045;SDS011;54657;52.022;5.534;2022-09-03T03:08:15;1.98;;;1.42;;
65045;SDS011;54657;52.022;5.534;2022-09-03T03:10:45;2.92;;;1.40;;
65045;SDS011;54657;52.022;5.534;2022-09-03T03:13:11;1.70;;;1.60;;
65045;SDS011;54657;52.022;5.534;2022-09-03T03:15:37;2.42;;;1.40;;
65045;SDS011;54657;52.022;5.534;2022-09-03T03:18:02;1.98;;;1.30;;
65045;SDS011;54657;52.022;5.534;2022-09-03T03:20:28;2.90;;;1.73;;
65045;SDS011;54657;52.022;5.534;2022-09-03T03:22:54;1.88;;;1.20;;
65045;SDS011;54657;52.022;5.534;2022-09-03T03:25:19;2.65;;;1.70;;
65045;SDS011;54657;52.022;5.534;2022-09-03T03:27:45;2.63;;;1.55;;
65045;SDS011;54657;52.022;5.534;2022-09-03T03:30:11;1.45;;;1.20;;
65045;SDS011;54657;52.022;5.534;2022-09-03T03:32:37;2.38;;;1.50;;
65045;SDS011;54657;52.022;5.534;2022-09-03T03:35:03;5.22;;;1.38;;
65045;SDS011;54657;52.022;5.534;2022-09-03T03:37:31;1.85;;;1.48;;
65045;SDS011;54657;52.022;5.534;2022-09-03T03:39:57;1.50;;;1.33;;
65045;SDS011;54657;52.022;5.534;2022-09-03T03:42:23;2.38;;;1.50;;
65045;SDS011;54657;52.022;5.534;2022-09-03T03:44:48;6.20;;;1.55;;
65045;SDS011;54657;52.022;5.534;2022-09-03T03:47:14;1.88;;;1.40;;
65045;SDS011;54657;52.022;5.534;2022-09-03T03:49:41;3.90;;;1.80;;
65045;SDS011;54657;52.022;5.534;2022-09-03T03:52:07;3.42;;;1.95;;
65045;SDS011;54657;52.022;5.534;2022-09-03T03:54:33;2.30;;;1.55;;
65045;SDS011;54657;52.022;5.534;2022-09-03T03:56:58;3.20;;;1.33;;
65045;SDS011;54657;52.022;5.534;2022-09-03T03:59:24;1.58;;;1.40;;
65045;SDS011;54657;52.022;5.534;2022-09-03T04:01:50;2.17;;;1.30;;
65045;SDS011;54657;52.022;5.534;2022-09-03T04:04:18;1.60;;;1.30;;
65045;SDS011;54657;52.022;5.534;2022-09-03T04:06:44;5.85;;;1.38;;
65045;SDS011;54657;52.022;5.534;2022-09-03T04:09:10;1.55;;;1.40;;
65045;SDS011;54657;52.022;5.534;2022-09-03T04:11:38;4.07;;;1.50;;
65045;SDS011;54657;52.022;5.534;2022-09-03T04:14:04;1.83;;;1.50;;
65045;SDS011;54657;52.022;5.534;2022-09-03T04:16:30;2.75;;;1.50;;
65045;SDS011;54657;52.022;5.534;2022-09-03T04:18:56;2.88;;;1.67;;
65045;SDS011;54657;52.022;5.534;2022-09-03T04:21:23;2.75;;;1.48;;
65045;SDS011;54657;52.022;5.534;2022-09-03T04:23:51;3.97;;;1.88;;
65045;SDS011;54657;52.022;5.534;2022-09-03T04:26:18;1.77;;;1.40;;
65045;SDS011;54657;52.022;5.534;2022-09-03T04:28:48;2.10;;;1.45;;
65045;SDS011;54657;52.022;5.534;2022-09-03T04:31:15;5.45;;;1.45;;
65045;SDS011;54657;52.022;5.534;2022-09-03T04:33:41;2.22;;;1.60;;
65045;SDS011;54657;52.022;5.534;2022-09-03T04:38:38;2.50;;;1.60;;
65045;SDS011;54657;52.022;5.534;2022-09-03T04:41:06;1.63;;;1.48;;
65045;SDS011;54657;52.022;5.534;2022-09-03T04:43:33;3.03;;;1.35;;
65045;SDS011;54657;52.022;5.534;2022-09-03T04:46:00;1.48;;;1.23;;
65045;SDS011;54657;52.022;5.534;2022-09-03T04:48:30;3.72;;;1.35;;
65045;SDS011;54657;52.022;5.534;2022-09-03T04:51:06;2.97;;;1.33;;
65045;SDS011;54657;52.022;5.534;2022-09-03T04:53:38;2.53;;;1.40;;
65045;SDS011;54657;52.022;5.534;2022-09-03T04:56:20;2.22;;;1.45;;
65045;SDS011;54657;52.022;5.534;2022-09-03T04:58:48;2.03;;;1.60;;
65045;SDS011;54657;52.022;5.534;2022-09-03T05:01:18;2.22;;;1.73;;
65045;SDS011;54657;52.022;5.534;2022-09-03T05:03:45;3.83;;;1.42;;
65045;SDS011;54657;52.022;5.534;2022-09-03T05:06:11;7.43;;;1.60;;
65045;SDS011;54657;52.022;5.534;2022-09-03T05:08:40;2.80;;;1.40;;
65045;SDS011;54657;52.022;5.534;2022-09-03T05:11:08;3.78;;;1.38;;
65045;SDS011;54657;52.022;5.534;2022-09-03T05:13:34;2.10;;;1.20;;
65045;SDS011;54657;52.022;5.534;2022-09-03T05:16:01;2.85;;;1.60;;
65045;SDS011;54657;52.022;5.534;2022-09-03T05:18:32;1.40;;;1.30;;
65045;SDS011;54657;52.022;5.534;2022-09-03T05:21:03;2.67;;;1.30;;
65045;SDS011;54657;52.022;5.534;2022-09-03T05:23:31;2.83;;;1.40;;
65045;SDS011;54657;52.022;5.534;2022-09-03T05:26:00;1.75;;;1.50;;
65045;SDS011;54657;52.022;5.534;2022-09-03T05:28:29;2.90;;;1.40;;
65045;SDS011;54657;52.022;5.534;2022-09-03T05:30:59;3.33;;;1.50;;
65045;SDS011;54657;52.022;5.534;2022-09-03T05:33:25;1.73;;;1.30;;
65045;SDS011;54657;52.022;5.534;2022-09-03T05:35:51;2.13;;;1.40;;
65045;SDS011;54657;52.022;5.534;2022-09-03T05:38:18;1.38;;;1.20;;
65045;SDS011;54657;52.022;5.534;2022-09-03T05:40:43;2.95;;;1.48;;
65045;SDS011;54657;52.022;5.534;2022-09-03T05:43:09;1.55;;;1.17;;
65045;SDS011;54657;52.022;5.534;2022-09-03T05:45:34;1.83;;;1.40;;
65045;SDS011;54657;52.022;5.534;2022-09-03T05:48:01;1.50;;;1.40;;
65045;SDS011;54657;52.022;5.534;2022-09-03T05:50:26;3.58;;;1.83;;
65045;SDS011;54657;52.022;5.534;2022-09-03T05:52:52;2.85;;;1.30;;
65045;SDS011;54657;52.022;5.534;2022-09-03T05:55:18;2.90;;;1.30;;
65045;SDS011;54657;52.022;5.534;2022-09-03T05:57:44;2.88;;;1.38;;
65045;SDS011;54657;52.022;5.534;2022-09-03T06:00:15;2.00;;;1.38;;
65045;SDS011;54657;52.022;5.534;2022-09-03T06:02:48;4.70;;;1.48;;
65045;SDS011;54657;52.022;5.534;2022-09-03T06:05:19;3.35;;;1.27;;
65045;SDS011;54657;52.022;5.534;2022-09-03T06:07:45;2.55;;;1.20;;
65045;SDS011;54657;52.022;5.534;2022-09-03T06:10:14;4.32;;;1.52;;
65045;SDS011;54657;52.022;5.534;2022-09-03T06:12:41;1.50;;;1.40;;
65045;SDS011;54657;52.022;5.534;2022-09-03T06:15:10;2.10;;;1.38;;
65045;SDS011;54657;52.022;5.534;2022-09-03T06:17:36;3.05;;;1.48;;
65045;SDS011;54657;52.022;5.534;2022-09-03T06:20:02;5.00;;;1.80;;
65045;SDS011;54657;52.022;5.534;2022-09-03T06:22:28;3.30;;;1.30;;
65045;SDS011;54657;52.022;5.534;2022-09-03T06:24:55;3.85;;;1.40;;
65045;SDS011;54657;52.022;5.534;2022-09-03T06:27:20;4.05;;;1.70;;
65045;SDS011;54657;52.022;5.534;2022-09-03T06:29:46;3.38;;;1.38;;
65045;SDS011;54657;52.022;5.534;2022-09-03T06:32:12;3.35;;;1.35;;
65045;SDS011;54657;52.022;5.534;2022-09-03T06:34:39;2.53;;;1.63;;
65045;SDS011;54657;52.022;5.534;2022-09-03T06:37:04;2.35;;;1.58;;
65045;SDS011;54657;52.022;5.534;2022-09-03T06:39:30;3.67;;;1.33;;
65045;SDS011;54657;52.022;5.534;2022-09-03T06:41:55;2.42;;;1.20;;
65045;SDS011;54657;52.022;5.534;2022-09-03T06:44:21;3.50;;;1.50;;
65045;SDS011;54657;52.022;5.534;2022-09-03T06:46:46;3.60;;;1.40;;
65045;SDS011;54657;52.022;5.534;2022-09-03T06:49:12;1.10;;;1.00;;
65045;SDS011;54657;52.022;5.534;2022-09-03T06:51:38;1.92;;;1.40;;
65045;SDS011;54657;52.022;5.534;2022-09-03T06:54:05;2.10;;;1.40;;
65045;SDS011;54657;52.022;5.534;2022-09-03T06:56:34;3.38;;;1.30;;
65045;SDS011;54657;52.022;5.534;2022-09-03T06:59:03;3.60;;;1.30;;
65045;SDS011;54657;52.022;5.534;2022-09-03T07:01:34;2.83;;;1.50;;
65045;SDS011;54657;52.022;5.534;2022-09-03T07:04:01;2.92;;;1.30;;
65045;SDS011;54657;52.022;5.534;2022-09-03T07:06:29;3.42;;;1.50;;
65045;SDS011;54657;52.022;5.534;2022-09-03T07:08:57;2.15;;;1.70;;
65045;SDS011;54657;52.022;5.534;2022-09-03T07:11:24;3.03;;;1.33;;
65045;SDS011;54657;52.022;5.534;2022-09-03T07:13:53;1.52;;;1.30;;
65045;SDS011;54657;52.022;5.534;2022-09-03T07:16:27;2.88;;;1.30;;
65045;SDS011;54657;52.022;5.534;2022-09-03T07:18:54;2.30;;;1.20;;
65045;SDS011;54657;52.022;5.534;2022-09-03T07:21:21;5.20;;;1.23;;
65045;SDS011;54657;52.022;5.534;2022-09-03T07:23:49;1.33;;;1.08;;
65045;SDS011;54657;52.022;5.534;2022-09-03T07:26:17;2.25;;;1.30;;
65045;SDS011;54657;52.022;5.534;2022-09-03T07:28:45;5.60;;;1.60;;
65045;SDS011;54657;52.022;5.534;2022-09-03T07:31:12;2.45;;;1.33;;
65045;SDS011;54657;52.022;5.534;2022-09-03T07:33:44;1.60;;;1.30;;
65045;SDS011;54657;52.022;5.534;2022-09-03T07:36:14;1.60;;;1.25;;
65045;SDS011;54657;52.022;5.534;2022-09-03T07:38:42;2.42;;;1.30;;
65045;SDS011;54657;52.022;5.534;2022-09-03T07:41:12;2.78;;;1.38;;
65045;SDS011;54657;52.022;5.534;2022-09-03T07:43:39;3.80;;;1.20;;
65045;SDS011;54657;52.022;5.534;2022-09-03T07:46:16;3.60;;;1.23;;
65045;SDS011;54657;52.022;5.534;2022-09-03T07:48:47;2.42;;;1.02;;
65045;SDS011;54657;52.022;5.534;2022-09-03T07:51:14;2.17;;;1.30;;
65045;SDS011;54657;52.022;5.534;2022-09-03T07:53:44;2.08;;;1.35;;
65045;SDS011;54657;52.022;5.534;2022-09-03T07:56:11;2.83;;;1.50;;
65045;SDS011;54657;52.022;5.534;2022-09-03T07:58:37;1.65;;;1.40;;
65045;SDS011;54657;52.022;5.534;2022-09-03T08:01:14;3.67;;;1.20;;
65045;SDS011;54657;52.022;5.534;2022-09-03T08:03:41;1.67;;;1.20;;
65045;SDS011;54657;52.022;5.534;2022-09-03T08:06:09;5.10;;;1.27;;
65045;SDS011;54657;52.022;5.534;2022-09-03T08:08:35;2.88;;;1.80;;
65045;SDS011;54657;52.022;5.534;2022-09-03T08:11:09;3.50;;;1.42;;
65045;SDS011;54657;52.022;5.534;2022-09-03T08:13:37;3.08;;;1.63;;
65045;SDS011;54657;52.022;5.534;2022-09-03T08:16:04;2.80;;;1.30;;
65045;SDS011;54657;52.022;5.534;2022-09-03T08:18:31;2.20;;;1.27;;
65045;SDS011;54657;52.022;5.534;2022-09-03T08:21:01;1.40;;;1.30;;
65045;SDS011;54657;52.022;5.534;2022-09-03T08:23:29;2.85;;;1.23;;
65045;SDS011;54657;52.022;5.534;2022-09-03T08:25:58;2.95;;;1.38;;
65045;SDS011;54657;52.022;5.534;2022-09-03T08:28:24;1.90;;;1.30;;
65045;SDS011;54657;52.022;5.534;2022-09-03T08:30:50;2.78;;;1.40;;
65045;SDS011;54657;52.022;5.534;2022-09-03T08:33:15;1.50;;;1.25;;
65045;SDS011;54657;52.022;5.534;2022-09-03T08:36:00;1.70;;;1.23;;
65045;SDS011;54657;52.022;5.534;2022-09-03T08:38:50;3.70;;;1.40;;
65045;SDS011;54657;52.022;5.534;2022-09-03T08:41:27;4.97;;;1.40;;
65045;SDS011;54657;52.022;5.534;2022-09-03T08:49:12;1.55;;;1.33;;
65045;SDS011;54657;52.022;5.534;2022-09-03T08:51:41;3.28;;;1.33;;
65045;SDS011;54657;52.022;5.534;2022-09-03T08:54:08;2.33;;;1.38;;
65045;SDS011;54657;52.022;5.534;2022-09-03T08:56:37;3.80;;;1.38;;
65045;SDS011;54657;52.022;5.534;2022-09-03T08:59:05;5.78;;;1.40;;
65045;SDS011;54657;52.022;5.534;2022-09-03T09:04:27;3.33;;;1.70;;
65045;SDS011;54657;52.022;5.534;2022-09-03T09:07:20;5.30;;;1.60;;
65045;SDS011;54657;52.022;5.534;2022-09-03T09:09:49;2.38;;;1.20;;
65045;SDS011;54657;52.022;5.534;2022-09-03T09:12:35;2.55;;;1.30;;
65045;SDS011;54657;52.022;5.534;2022-09-03T09:23:18;2.17;;;1.40;;
65045;SDS011;54657;52.022;5.534;2022-09-03T09:25:59;2.15;;;1.25;;
65045;SDS011;54657;52.022;5.534;2022-09-03T09:28:33;4.60;;;1.60;;
65045;SDS011;54657;52.022;5.534;2022-09-03T09:33:29;1.23;;;1.13;;
65045;SDS011;54657;52.022;5.534;2022-09-03T09:35:58;2.15;;;1.30;;
65045;SDS011;54657;52.022;5.534;2022-09-03T09:38:26;2.65;;;1.25;;
65045;SDS011;54657;52.022;5.534;2022-09-03T09:40:53;7.15;;;1.30;;
65045;SDS011;54657;52.022;5.534;2022-09-03T09:43:21;5.55;;;1.33;;
65045;SDS011;54657;52.022;5.534;2022-09-03T09:45:48;2.67;;;1.27;;
65045;SDS011;54657;52.022;5.534;2022-09-03T09:50:46;4.13;;;1.53;;
65045;SDS011;54657;52.022;5.534;2022-09-03T09:53:12;2.47;;;1.23;;
65045;SDS011;54657;52.022;5.534;2022-09-03T09:55:52;3.63;;;1.55;;
65045;SDS011;54657;52.022;5.534;2022-09-03T09:58:19;2.28;;;1.40;;
65045;SDS011;54657;52.022;5.534;2022-09-03T10:00:57;2.47;;;1.90;;
65045;SDS011;54657;52.022;5.534;2022-09-03T10:03:24;1.55;;;1.40;;
65045;SDS011;54657;52.022;5.534;2022-09-03T10:06:05;2.55;;;1.20;;
65045;SDS011;54657;52.022;5.534;2022-09-03T10:08:52;2.50;;;1.67;;
65045;SDS011;54657;52.022;5.534;2022-09-03T10:11:30;1.95;;;1.05;;
65045;SDS011;54657;52.022;5.534;2022-09-03T10:13:58;1.40;;;1.30;;
65045;SDS011;54657;52.022;5.534;2022-09-03T10:16:29;2.03;;;1.40;;
65045;SDS011;54657;52.022;5.534;2022-09-03T10:19:15;3.55;;;1.30;;
65045;SDS011;54657;52.022;5.534;2022-09-03T10:21:53;2.35;;;1.55;;
65045;SDS011;54657;52.022;5.534;2022-09-03T10:24:32;4.95;;;1.40;;
65045;SDS011;54657;52.022;5.534;2022-09-03T10:27:06;3.67;;;1.20;;
65045;SDS011;54657;52.022;5.534;2022-09-03T10:29:35;3.83;;;1.27;;
65045;SDS011;54657;52.022;5.534;2022-09-03T10:32:11;5.63;;;1.27;;
65045;SDS011;54657;52.022;5.534;2022-09-03T10:34:52;1.27;;;1.10;;
65045;SDS011;54657;52.022;5.534;2022-09-03T10:37:50;2.80;;;1.33;;
65045;SDS011;54657;52.022;5.534;2022-09-03T10:46:21;3.83;;;1.30;;
65045;SDS011;54657;52.022;5.534;2022-09-03T10:54:10;2.13;;;1.23;;
65045;SDS011;54657;52.022;5.534;2022-09-03T11:02:39;1.30;;;1.20;;
65045;SDS011;54657;52.022;5.534;2022-09-03T11:05:30;2.85;;;1.23;;
65045;SDS011;54657;52.022;5.534;2022-09-03T11:08:04;2.22;;;1.30;;
65045;SDS011;54657;52.022;5.534;2022-09-03T11:10:40;3.50;;;1.10;;
65045;SDS011;54657;52.022;5.534;2022-09-03T11:13:16;4.70;;;1.70;;
65045;SDS011;54657;52.022;5.534;2022-09-03T11:15:56;2.90;;;1.15;;
65045;SDS011;54657;52.022;5.534;2022-09-03T11:21:00;1.33;;;1.23;;
65045;SDS011;54657;52.022;5.534;2022-09-03T11:23:29;2.40;;;1.40;;
65045;SDS011;54657;52.022;5.534;2022-09-03T11:25:59;2.60;;;1.48;;
65045;SDS011;54657;52.022;5.534;2022-09-03T11:33:45;1.70;;;1.20;;
65045;SDS011;54657;52.022;5.534;2022-09-03T11:36:22;1.67;;;1.17;;
65045;SDS011;54657;52.022;5.534;2022-09-03T11:38:52;1.48;;;1.38;;
65045;SDS011;54657;52.022;5.534;2022-09-03T11:43:46;2.15;;;1.60;;
65045;SDS011;54657;52.022;5.534;2022-09-03T11:48:53;3.00;;;1.58;;
65045;SDS011;54657;52.022;5.534;2022-09-03T11:51:34;3.47;;;1.33;;
65045;SDS011;54657;52.022;5.534;2022-09-03T11:54:06;1.63;;;1.20;;
65045;SDS011;54657;52.022;5.534;2022-09-03T11:56:38;5.43;;;1.33;;
65045;SDS011;54657;52.022;5.534;2022-09-03T11:59:16;1.20;;;1.10;;
65045;SDS011;54657;52.022;5.534;2022-09-03T12:01:55;1.38;;;1.10;;
65045;SDS011;54657;52.022;5.534;2022-09-03T12:04:29;3.33;;;1.33;;
65045;SDS011;54657;52.022;5.534;2022-09-03T12:12:54;2.13;;;1.33;;
65045;SDS011;54657;52.022;5.534;2022-09-03T12:15:53;1.65;;;1.10;;
65045;SDS011;54657;52.022;5.534;2022-09-03T12:18:39;2.35;;;1.42;;
65045;SDS011;54657;52.022;5.534;2022-09-03T12:21:06;2.53;;;1.60;;
65045;SDS011;54657;52.022;5.534;2022-09-03T12:23:34;4.90;;;1.48;;
65045;SDS011;54657;52.022;5.534;2022-09-03T12:26:14;5.85;;;1.42;;
65045;SDS011;54657;52.022;5.534;2022-09-03T12:28:52;4.53;;;1.33;;
65045;SDS011;54657;52.022;5.534;2022-09-03T12:31:21;2.67;;;1.27;;
65045;SDS011;54657;52.022;5.534;2022-09-03T12:36:22;3.25;;;1.35;;
65045;SDS011;54657;52.022;5.534;2022-09-03T12:38:48;2.88;;;1.30;;
65045;SDS011;54657;52.022;5.534;2022-09-03T12:41:29;4.47;;;1.48;;
65045;SDS011;54657;52.022;5.534;2022-09-03T12:43:56;6.38;;;1.40;;
65045;SDS011;54657;52.022;5.534;2022-09-03T12:46:24;3.03;;;1.50;;
65045;SDS011;54657;52.022;5.534;2022-09-03T12:48:55;2.47;;;1.23;;
65045;SDS011;54657;52.022;5.534;2022-09-03T12:51:26;4.90;;;1.27;;
65045;SDS011;54657;52.022;5.534;2022-09-03T12:53:56;4.60;;;1.48;;
65045;SDS011;54657;52.022;5.534;2022-09-03T12:56:22;3.72;;;1.50;;
65045;SDS011;54657;52.022;5.534;2022-09-03T12:58:51;4.00;;;1.27;;
65045;SDS011;54657;52.022;5.534;2022-09-03T13:01:24;2.92;;;1.30;;
65045;SDS011;54657;52.022;5.534;2022-09-03T13:04:02;1.55;;;1.45;;
65045;SDS011;54657;52.022;5.534;2022-09-03T13:09:13;1.50;;;1.40;;
65045;SDS011;54657;52.022;5.534;2022-09-03T13:11:43;2.63;;;1.40;;
65045;SDS011;54657;52.022;5.534;2022-09-03T13:14:10;4.55;;;1.45;;
65045;SDS011;54657;52.022;5.534;2022-09-03T13:21:40;6.72;;;1.45;;
65045;SDS011;54657;52.022;5.534;2022-09-03T13:24:27;4.55;;;1.90;;
65045;SDS011;54657;52.022;5.534;2022-09-03T13:27:33;2.67;;;1.20;;
65045;SDS011;54657;52.022;5.534;2022-09-03T13:32:45;3.38;;;1.20;;
65045;SDS011;54657;52.022;5.534;2022-09-03T13:35:43;2.45;;;1.45;;
65045;SDS011;54657;52.022;5.534;2022-09-03T13:38:42;3.83;;;1.40;;
65045;SDS011;54657;52.022;5.534;2022-09-03T13:44:42;3.05;;;1.67;;
65045;SDS011;54657;52.022;5.534;2022-09-03T13:47:06;2.88;;;1.65;;
65045;SDS011;54657;52.022;5.534;2022-09-03T13:49:46;3.75;;;1.48;;
65045;SDS011;54657;52.022;5.534;2022-09-03T14:00:21;1.87;;;1.60;;
65045;SDS011;54657;52.022;5.534;2022-09-03T14:03:11;2.45;;;1.60;;
65045;SDS011;54657;52.022;5.534;2022-09-03T14:05:43;1.70;;;1.60;;
65045;SDS011;54657;52.022;5.534;2022-09-03T14:08:31;1.85;;;1.60;;
65045;SDS011;54657;52.022;5.534;2022-09-03T14:13:59;3.13;;;1.50;;
65045;SDS011;54657;52.022;5.534;2022-09-03T14:16:46;4.03;;;1.83;;
65045;SDS011;54657;52.022;5.534;2022-09-03T14:19:16;66.68;;;7.95;;
65045;SDS011;54657;52.022;5.534;2022-09-03T14:27:32;2.92;;;1.70;;
65045;SDS011;54657;52.022;5.534;2022-09-03T14:30:00;4.55;;;1.80;;
65045;SDS011;54657;52.022;5.534;2022-09-03T14:32:36;3.28;;;1.85;;
65045;SDS011;54657;52.022;5.534;2022-09-03T14:40:45;2.78;;;1.63;;
65045;SDS011;54657;52.022;5.534;2022-09-03T14:51:35;5.15;;;1.70;;
65045;SDS011;54657;52.022;5.534;2022-09-03T15:00:26;2.50;;;1.70;;
65045;SDS011;54657;52.022;5.534;2022-09-03T15:06:04;1.80;;;1.60;;
65045;SDS011;54657;52.022;5.534;2022-09-03T15:08:42;3.67;;;1.80;;
65045;SDS011;54657;52.022;5.534;2022-09-03T15:11:16;2.05;;;1.63;;
65045;SDS011;54657;52.022;5.534;2022-09-03T15:19:17;3.75;;;1.45;;
65045;SDS011;54657;52.022;5.534;2022-09-03T15:22:07;1.80;;;1.50;;
65045;SDS011;54657;52.022;5.534;2022-09-03T15:30:15;2.47;;;1.50;;
65045;SDS011;54657;52.022;5.534;2022-09-03T15:38:02;3.90;;;1.60;;
65045;SDS011;54657;52.022;5.534;2022-09-03T15:40:53;2.33;;;1.85;;
65045;SDS011;54657;52.022;5.534;2022-09-03T15:43:30;4.05;;;1.80;;
65045;SDS011;54657;52.022;5.534;2022-09-03T15:46:10;2.40;;;1.70;;
65045;SDS011;54657;52.022;5.534;2022-09-03T15:49:02;8.88;;;1.88;;
65045;SDS011;54657;52.022;5.534;2022-09-03T15:54:52;3.05;;;1.60;;
65045;SDS011;54657;52.022;5.534;2022-09-03T16:00:16;2.20;;;1.58;;
65045;SDS011;54657;52.022;5.534;2022-09-03T16:05:53;2.45;;;1.77;;
65045;SDS011;54657;52.022;5.534;2022-09-03T16:08:39;3.08;;;2.05;;
65045;SDS011;54657;52.022;5.534;2022-09-03T16:11:18;4.85;;;2.40;;
65045;SDS011;54657;52.022;5.534;2022-09-03T16:22:18;2.03;;;1.80;;
65045;SDS011;54657;52.022;5.534;2022-09-03T16:24:51;4.28;;;2.03;;
65045;SDS011;54657;52.022;5.534;2022-09-03T16:30:08;3.15;;;1.92;;
65045;SDS011;54657;52.022;5.534;2022-09-03T16:43:43;3.40;;;1.90;;
65045;SDS011;54657;52.022;5.534;2022-09-03T16:46:23;6.05;;;1.70;;
65045;SDS011;54657;52.022;5.534;2022-09-03T16:57:25;3.53;;;2.05;;
65045;SDS011;54657;52.022;5.534;2022-09-03T17:10:53;2.38;;;2.17;;
65045;SDS011;54657;52.022;5.534;2022-09-03T17:16:34;4.57;;;2.20;;
65045;SDS011;54657;52.022;5.534;2022-09-03T17:29:00;2.65;;;2.00;;
65045;SDS011;54657;52.022;5.534;2022-09-03T17:33:56;3.17;;;2.13;;
65045;SDS011;54657;52.022;5.534;2022-09-03T17:36:29;2.72;;;2.00;;
65045;SDS011;54657;52.022;5.534;2022-09-03T17:42:16;3.30;;;2.00;;
65045;SDS011;54657;52.022;5.534;2022-09-03T17:45:02;2.60;;;2.05;;
65045;SDS011;54657;52.022;5.534;2022-09-03T17:47:55;4.13;;;2.10;;
65045;SDS011;54657;52.022;5.534;2022-09-03T17:50:45;3.13;;;2.08;;
65045;SDS011;54657;52.022;5.534;2022-09-03T17:53:24;5.20;;;2.10;;
65045;SDS011;54657;52.022;5.534;2022-09-03T17:56:05;6.70;;;2.20;;
65045;SDS011;54657;52.022;5.534;2022-09-03T17:59:05;3.25;;;2.40;;
65045;SDS011;54657;52.022;5.534;2022-09-03T18:01:49;5.10;;;2.70;;
65045;SDS011;54657;52.022;5.534;2022-09-03T18:04:35;3.20;;;2.47;;
65045;SDS011;54657;52.022;5.534;2022-09-03T18:10:01;4.40;;;2.70;;
65045;SDS011;54657;52.022;5.534;2022-09-03T18:12:50;6.80;;;2.40;;
65045;SDS011;54657;52.022;5.534;2022-09-03T18:18:04;8.50;;;2.80;;
65045;SDS011;54657;52.022;5.534;2022-09-03T18:20:42;3.08;;;2.47;;
65045;SDS011;54657;52.022;5.534;2022-09-03T18:23:39;7.40;;;2.45;;
65045;SDS011;54657;52.022;5.534;2022-09-03T18:26:35;5.25;;;2.55;;
65045;SDS011;54657;52.022;5.534;2022-09-03T18:32:25;4.82;;;2.70;;
65045;SDS011;54657;52.022;5.534;2022-09-03T18:35:11;5.88;;;2.85;;
65045;SDS011;54657;52.022;5.534;2022-09-03T18:37:55;8.73;;;2.50;;
65045;SDS011;54657;52.022;5.534;2022-09-03T18:40:58;7.93;;;2.60;;
65045;SDS011;54657;52.022;5.534;2022-09-03T18:47:24;4.97;;;2.63;;
65045;SDS011;54657;52.022;5.534;2022-09-03T18:50:23;3.40;;;2.40;;
65045;SDS011;54657;52.022;5.534;2022-09-03T18:53:27;3.05;;;2.72;;
65045;SDS011;54657;52.022;5.534;2022-09-03T18:59:37;5.13;;;2.70;;
65045;SDS011;54657;52.022;5.534;2022-09-03T19:05:34;4.03;;;2.45;;
65045;SDS011;54657;52.022;5.534;2022-09-03T19:11:33;5.20;;;2.22;;
65045;SDS011;54657;52.022;5.534;2022-09-03T19:14:28;3.38;;;2.50;;
65045;SDS011;54657;52.022;5.534;2022-09-03T19:20:34;7.40;;;2.95;;
65045;SDS011;54657;52.022;5.534;2022-09-03T19:23:21;7.13;;;2.33;;
65045;SDS011;54657;52.022;5.534;2022-09-03T19:26:39;8.45;;;2.70;;
65045;SDS011;54657;52.022;5.534;2022-09-03T19:33:32;3.40;;;2.50;;
65045;SDS011;54657;52.022;5.534;2022-09-03T19:35:42;3.40;;;2.33;;
65045;SDS011;54657;52.022;5.534;2022-09-03T19:41:45;7.18;;;2.55;;
65045;SDS011;54657;52.022;5.534;2022-09-03T19:48:00;5.45;;;2.83;;
65045;SDS011;54657;52.022;5.534;2022-09-03T19:50:55;7.57;;;2.67;;
65045;SDS011;54657;52.022;5.534;2022-09-03T19:53:50;5.10;;;2.40;;
65045;SDS011;54657;52.022;5.534;2022-09-03T19:56:35;5.93;;;2.78;;
65045;SDS011;54657;52.022;5.534;2022-09-03T19:59:21;8.07;;;2.92;;
65045;SDS011;54657;52.022;5.534;2022-09-03T20:02:08;7.40;;;2.80;;
65045;SDS011;54657;52.022;5.534;2022-09-03T20:04:55;7.10;;;3.20;;
65045;SDS011;54657;52.022;5.534;2022-09-03T20:07:41;12.27;;;3.42;;
65045;SDS011;54657;52.022;5.534;2022-09-03T20:10:26;6.22;;;2.65;;
65045;SDS011;54657;52.022;5.534;2022-09-03T20:15:41;76.55;;;47.78;;
65045;SDS011;54657;52.022;5.534;2022-09-03T20:21:16;50.35;;;34.88;;
65045;SDS011;54657;52.022;5.534;2022-09-03T20:23:53;47.03;;;29.58;;
65045;SDS011;54657;52.022;5.534;2022-09-03T20:26:59;48.83;;;32.97;;
65045;SDS011;54657;52.022;5.534;2022-09-03T20:32:06;22.75;;;15.10;;
65045;SDS011;54657;52.022;5.534;2022-09-03T20:37:30;18.25;;;12.40;;
65045;SDS011;54657;52.022;5.534;2022-09-03T20:51:13;7.25;;;4.00;;
65045;SDS011;54657;52.022;5.534;2022-09-03T20:53:51;8.55;;;3.20;;
65045;SDS011;54657;52.022;5.534;2022-09-03T20:56:24;5.10;;;3.35;;
65045;SDS011;54657;52.022;5.534;2022-09-03T21:01:49;6.78;;;3.15;;
65045;SDS011;54657;52.022;5.534;2022-09-03T21:04:46;4.68;;;2.88;;